Airfield :
LOGIN :

Register | Disclaimer

   EN    FR    IT 

 










Legend :    VFR   Marginal VFR   IFR   Intensive IFR   Very Intensive IFR
Visi :
Ceiling :
>= 8 km
>= 3000ft
5 to 8 km
1000 to 3000 ft
1500m to 5 km
500 to 1000 ft
800 to 1500m
200 to 500 ft
< 800m
< 200 ft
Symbols :   Thunderstorms  Fog  Heavy snow  Heavy precipitations  Wind > 20 kt
SIGMETs :     Misc.  Thunderstorms  Icing  Turbulence  Mountain Waves  Volcanic Ashes







- Airport Elevation : 1416 ft
- IATA code : ZRH


LSZH - Zurich

EXPIRED METARs :
  • 241420Z 25008KT 210V310 9999 FEW037 BKN042 25/16 Q1018 NOSIG
  • 241350Z 24008KT 200V270 9999 FEW038 BKN043 25/16 Q1018 NOSIG
  • 241320Z 23010KT 9999 FEW038 BKN043 24/15 Q1019 NOSIG
  • 241250Z 25004KT 170V300 9999 FEW038 SCT045 BKN050 24/16 Q1019 NOSIG
  • 241220Z 27004KT 150V310 9999 FEW036 SCT040 BKN052 24/15 Q1019 NOSIG
  • 241150Z 27008KT 240V300 9999 FEW036 BKN038 BKN050 24/15 Q1019 NOSIG

TAF TAF LSZH
Valid from the 23 at 18:00 until the 25 at 00:00 UTC


231725Z 2318/2424 28012KT 9999 FEW050 BKN280 TX30/2415Z TN19/2404Z
BECMG 2318/2320 CAVOK
BECMG 2319/2321 VRB03KT
PROB40 2403/2412 9999 SCT050
PROB40 2411/2417 30010KT 9999 FEW060
ATIS : +41 43 816 2295 (DEP) +41 43 816 2294 (ARR)
No reported NOTAMs for that airfield.



MET'MAP, your aeronautical weather chart ! - Copyright ORBIFLY December 2007 - Disclaimer

ORBIFLY MET'MAP TEAM :

Programming & Development : Alexandra Zaïnal
Concept & Development : Baudouin d'Aumeries
Co-Development & Prog : Marc-Olivier Méhu
Technical & hardware support : Manuel Goepfert

Contact : metmap@orbifly.com




SOURCES & CREDITS :

   NOAA